sensor_id;sensor_type;location;lat;lon;timestamp;P1;durP1;ratioP1;P2;durP2;ratioP2
58460;SDS011;45558;37.752;-97.822;2024-02-21T00:00:54;10.07;;;3.40;;
58460;SDS011;45558;37.752;-97.822;2024-02-21T00:03:20;15.38;;;3.42;;
58460;SDS011;45558;37.752;-97.822;2024-02-21T00:05:45;13.45;;;3.55;;
58460;SDS011;45558;37.752;-97.822;2024-02-21T00:11:32;11.85;;;3.05;;
58460;SDS011;45558;37.752;-97.822;2024-02-21T00:13:58;9.93;;;2.80;;
58460;SDS011;45558;37.752;-97.822;2024-02-21T00:16:24;11.82;;;2.67;;
58460;SDS011;45558;37.752;-97.822;2024-02-21T00:18:49;13.93;;;2.47;;
58460;SDS011;45558;37.752;-97.822;2024-02-21T00:21:16;9.15;;;2.65;;
58460;SDS011;45558;37.752;-97.822;2024-02-21T00:23:43;9.65;;;2.42;;
58460;SDS011;45558;37.752;-97.822;2024-02-21T00:26:11;16.48;;;3.00;;
58460;SDS011;45558;37.752;-97.822;2024-02-21T00:28:38;10.85;;;3.20;;
58460;SDS011;45558;37.752;-97.822;2024-02-21T00:31:04;14.40;;;3.33;;
58460;SDS011;45558;37.752;-97.822;2024-02-21T00:33:30;15.52;;;4.28;;
58460;SDS011;45558;37.752;-97.822;2024-02-21T00:35:55;11.38;;;3.00;;
58460;SDS011;45558;37.752;-97.822;2024-02-21T00:38:21;10.82;;;4.15;;
58460;SDS011;45558;37.752;-97.822;2024-02-21T00:40:47;17.73;;;3.42;;
58460;SDS011;45558;37.752;-97.822;2024-02-21T00:43:13;9.30;;;3.45;;
58460;SDS011;45558;37.752;-97.822;2024-02-21T00:45:39;11.25;;;4.07;;
58460;SDS011;45558;37.752;-97.822;2024-02-21T00:48:05;11.13;;;4.30;;
58460;SDS011;45558;37.752;-97.822;2024-02-21T00:50:31;13.40;;;3.63;;
58460;SDS011;45558;37.752;-97.822;2024-02-21T00:52:57;11.27;;;3.05;;
58460;SDS011;45558;37.752;-97.822;2024-02-21T00:55:23;9.20;;;3.13;;
58460;SDS011;45558;37.752;-97.822;2024-02-21T00:57:48;15.95;;;4.30;;
58460;SDS011;45558;37.752;-97.822;2024-02-21T01:00:14;10.77;;;4.20;;
58460;SDS011;45558;37.752;-97.822;2024-02-21T01:02:40;7.63;;;4.32;;
58460;SDS011;45558;37.752;-97.822;2024-02-21T01:05:06;10.48;;;4.80;;
58460;SDS011;45558;37.752;-97.822;2024-02-21T01:07:32;9.57;;;5.28;;
58460;SDS011;45558;37.752;-97.822;2024-02-21T01:09:58;13.38;;;5.65;;
58460;SDS011;45558;37.752;-97.822;2024-02-21T01:12:23;14.65;;;7.20;;
58460;SDS011;45558;37.752;-97.822;2024-02-21T01:14:49;17.85;;;7.38;;
58460;SDS011;45558;37.752;-97.822;2024-02-21T01:20:36;16.60;;;8.18;;
58460;SDS011;45558;37.752;-97.822;2024-02-21T01:23:02;16.80;;;8.18;;
58460;SDS011;45558;37.752;-97.822;2024-02-21T01:25:28;16.38;;;8.85;;
58460;SDS011;45558;37.752;-97.822;2024-02-21T01:27:54;15.00;;;8.68;;
58460;SDS011;45558;37.752;-97.822;2024-02-21T01:33:41;25.85;;;10.60;;
58460;SDS011;45558;37.752;-97.822;2024-02-21T01:36:07;18.92;;;9.38;;
58460;SDS011;45558;37.752;-97.822;2024-02-21T01:38:34;17.80;;;10.13;;
58460;SDS011;45558;37.752;-97.822;2024-02-21T01:41:00;19.88;;;9.82;;
58460;SDS011;45558;37.752;-97.822;2024-02-21T01:43:26;11.85;;;8.25;;
58460;SDS011;45558;37.752;-97.822;2024-02-21T01:45:52;16.23;;;9.05;;
58460;SDS011;45558;37.752;-97.822;2024-02-21T01:48:19;14.02;;;9.25;;
58460;SDS011;45558;37.752;-97.822;2024-02-21T01:50:45;15.18;;;8.00;;
58460;SDS011;45558;37.752;-97.822;2024-02-21T01:53:12;11.00;;;7.38;;
58460;SDS011;45558;37.752;-97.822;2024-02-21T01:55:45;12.80;;;7.40;;
58460;SDS011;45558;37.752;-97.822;2024-02-21T01:58:12;12.88;;;6.53;;
58460;SDS011;45558;37.752;-97.822;2024-02-21T02:00:41;14.30;;;5.80;;
58460;SDS011;45558;37.752;-97.822;2024-02-21T02:03:12;9.15;;;5.10;;
58460;SDS011;45558;37.752;-97.822;2024-02-21T02:05:47;8.68;;;5.53;;
58460;SDS011;45558;37.752;-97.822;2024-02-21T02:08:17;8.43;;;5.10;;
58460;SDS011;45558;37.752;-97.822;2024-02-21T02:10:44;8.85;;;5.30;;
58460;SDS011;45558;37.752;-97.822;2024-02-21T02:13:11;9.48;;;4.90;;
58460;SDS011;45558;37.752;-97.822;2024-02-21T02:15:44;7.20;;;4.00;;
58460;SDS011;45558;37.752;-97.822;2024-02-21T02:18:11;7.78;;;4.50;;
58460;SDS011;45558;37.752;-97.822;2024-02-21T02:20:37;8.45;;;5.22;;
58460;SDS011;45558;37.752;-97.822;2024-02-21T02:23:09;7.25;;;5.07;;
58460;SDS011;45558;37.752;-97.822;2024-02-21T02:25:36;10.07;;;5.10;;
58460;SDS011;45558;37.752;-97.822;2024-02-21T02:28:03;6.85;;;4.28;;
58460;SDS011;45558;37.752;-97.822;2024-02-21T02:30:32;5.93;;;4.30;;
58460;SDS011;45558;37.752;-97.822;2024-02-21T02:32:59;10.10;;;4.40;;
58460;SDS011;45558;37.752;-97.822;2024-02-21T02:35:24;4.88;;;3.60;;
58460;SDS011;45558;37.752;-97.822;2024-02-21T02:37:50;4.68;;;3.25;;
58460;SDS011;45558;37.752;-97.822;2024-02-21T02:40:16;4.95;;;2.85;;
58460;SDS011;45558;37.752;-97.822;2024-02-21T02:42:43;6.70;;;3.28;;
58460;SDS011;45558;37.752;-97.822;2024-02-21T02:45:09;10.93;;;4.25;;
58460;SDS011;45558;37.752;-97.822;2024-02-21T02:47:35;5.97;;;3.15;;
58460;SDS011;45558;37.752;-97.822;2024-02-21T02:50:01;7.85;;;3.30;;
58460;SDS011;45558;37.752;-97.822;2024-02-21T02:52:26;4.93;;;2.95;;
58460;SDS011;45558;37.752;-97.822;2024-02-21T02:54:52;4.45;;;2.55;;
58460;SDS011;45558;37.752;-97.822;2024-02-21T02:57:20;4.72;;;1.90;;
58460;SDS011;45558;37.752;-97.822;2024-02-21T02:59:49;2.38;;;2.13;;
58460;SDS011;45558;37.752;-97.822;2024-02-21T03:02:15;4.50;;;1.83;;
58460;SDS011;45558;37.752;-97.822;2024-02-21T03:04:41;2.58;;;1.70;;
58460;SDS011;45558;37.752;-97.822;2024-02-21T03:07:06;3.05;;;2.05;;
58460;SDS011;45558;37.752;-97.822;2024-02-21T03:09:32;1.83;;;1.40;;
58460;SDS011;45558;37.752;-97.822;2024-02-21T03:11:58;1.45;;;1.15;;
58460;SDS011;45558;37.752;-97.822;2024-02-21T03:14:31;1.15;;;1.00;;
58460;SDS011;45558;37.752;-97.822;2024-02-21T03:16:57;1.50;;;0.90;;
58460;SDS011;45558;37.752;-97.822;2024-02-21T03:19:24;1.05;;;0.82;;
58460;SDS011;45558;37.752;-97.822;2024-02-21T03:21:50;1.05;;;0.90;;
58460;SDS011;45558;37.752;-97.822;2024-02-21T03:24:16;1.88;;;0.60;;
58460;SDS011;45558;37.752;-97.822;2024-02-21T03:26:42;0.50;;;0.40;;
58460;SDS011;45558;37.752;-97.822;2024-02-21T03:29:08;0.60;;;0.40;;
58460;SDS011;45558;37.752;-97.822;2024-02-21T03:31:34;0.30;;;0.20;;
58460;SDS011;45558;37.752;-97.822;2024-02-21T03:34:00;1.23;;;0.40;;
58460;SDS011;45558;37.752;-97.822;2024-02-21T03:36:26;1.60;;;0.38;;
58460;SDS011;45558;37.752;-97.822;2024-02-21T03:38:51;0.98;;;0.20;;
58460;SDS011;45558;37.752;-97.822;2024-02-21T03:41:17;0.40;;;0.30;;
58460;SDS011;45558;37.752;-97.822;2024-02-21T03:43:43;2.05;;;0.20;;
58460;SDS011;45558;37.752;-97.822;2024-02-21T03:46:09;0.20;;;0.20;;
58460;SDS011;45558;37.752;-97.822;2024-02-21T03:48:35;0.25;;;0.20;;
58460;SDS011;45558;37.752;-97.822;2024-02-21T03:51:01;0.28;;;0.20;;
58460;SDS011;45558;37.752;-97.822;2024-02-21T03:53:27;0.20;;;0.20;;
58460;SDS011;45558;37.752;-97.822;2024-02-21T03:55:53;0.50;;;0.20;;
58460;SDS011;45558;37.752;-97.822;2024-02-21T03:58:20;0.30;;;0.20;;
58460;SDS011;45558;37.752;-97.822;2024-02-21T04:00:46;1.52;;;0.20;;
58460;SDS011;45558;37.752;-97.822;2024-02-21T04:03:11;0.20;;;0.20;;
58460;SDS011;45558;37.752;-97.822;2024-02-21T04:05:37;0.30;;;0.15;;
58460;SDS011;45558;37.752;-97.822;2024-02-21T04:08:04;0.43;;;0.20;;
58460;SDS011;45558;37.752;-97.822;2024-02-21T04:10:30;0.10;;;0.10;;
58460;SDS011;45558;37.752;-97.822;2024-02-21T04:12:57;0.10;;;0.10;;
58460;SDS011;45558;37.752;-97.822;2024-02-21T04:15:22;0.10;;;0.10;;
58460;SDS011;45558;37.752;-97.822;2024-02-21T04:17:48;0.10;;;0.10;;
58460;SDS011;45558;37.752;-97.822;2024-02-21T04:20:14;0.20;;;0.10;;
58460;SDS011;45558;37.752;-97.822;2024-02-21T04:22:42;0.17;;;0.17;;
58460;SDS011;45558;37.752;-97.822;2024-02-21T04:25:09;0.10;;;0.10;;
58460;SDS011;45558;37.752;-97.822;2024-02-21T04:27:34;6.63;;;0.47;;
58460;SDS011;45558;37.752;-97.822;2024-02-21T04:30:00;0.75;;;0.20;;
58460;SDS011;45558;37.752;-97.822;2024-02-21T04:32:26;0.55;;;0.20;;
58460;SDS011;45558;37.752;-97.822;2024-02-21T04:34:52;0.20;;;0.20;;
58460;SDS011;45558;37.752;-97.822;2024-02-21T04:37:18;0.63;;;0.17;;
58460;SDS011;45558;37.752;-97.822;2024-02-21T04:39:44;0.75;;;0.10;;
58460;SDS011;45558;37.752;-97.822;2024-02-21T04:42:10;0.20;;;0.20;;
58460;SDS011;45558;37.752;-97.822;2024-02-21T04:44:36;1.75;;;0.10;;
58460;SDS011;45558;37.752;-97.822;2024-02-21T04:47:02;0.10;;;0.10;;
58460;SDS011;45558;37.752;-97.822;2024-02-21T04:49:28;0.10;;;0.10;;
58460;SDS011;45558;37.752;-97.822;2024-02-21T04:51:54;0.20;;;0.20;;
58460;SDS011;45558;37.752;-97.822;2024-02-21T04:54:20;0.10;;;0.10;;
58460;SDS011;45558;37.752;-97.822;2024-02-21T04:56:46;2.70;;;0.25;;
58460;SDS011;45558;37.752;-97.822;2024-02-21T04:59:11;0.10;;;0.10;;
58460;SDS011;45558;37.752;-97.822;2024-02-21T05:01:37;0.85;;;0.10;;
58460;SDS011;45558;37.752;-97.822;2024-02-21T05:04:03;0.20;;;0.20;;
58460;SDS011;45558;37.752;-97.822;2024-02-21T05:06:29;0.47;;;0.20;;
58460;SDS011;45558;37.752;-97.822;2024-02-21T05:08:55;0.57;;;0.30;;
58460;SDS011;45558;37.752;-97.822;2024-02-21T05:11:21;0.20;;;0.20;;
58460;SDS011;45558;37.752;-97.822;2024-02-21T05:13:47;1.20;;;0.20;;
58460;SDS011;45558;37.752;-97.822;2024-02-21T05:16:13;0.82;;;0.28;;
58460;SDS011;45558;37.752;-97.822;2024-02-21T05:18:39;1.80;;;0.30;;
58460;SDS011;45558;37.752;-97.822;2024-02-21T05:21:05;1.40;;;0.28;;
58460;SDS011;45558;37.752;-97.822;2024-02-21T05:23:31;0.40;;;0.30;;
58460;SDS011;45558;37.752;-97.822;2024-02-21T05:25:57;2.65;;;0.25;;
58460;SDS011;45558;37.752;-97.822;2024-02-21T05:28:22;0.80;;;0.10;;
58460;SDS011;45558;37.752;-97.822;2024-02-21T05:30:48;0.13;;;0.10;;
58460;SDS011;45558;37.752;-97.822;2024-02-21T05:33:14;2.72;;;1.45;;
58460;SDS011;45558;37.752;-97.822;2024-02-21T05:35:46;0.10;;;0.10;;
58460;SDS011;45558;37.752;-97.822;2024-02-21T05:38:13;0.55;;;0.10;;
58460;SDS011;45558;37.752;-97.822;2024-02-21T05:40:39;1.45;;;0.10;;
58460;SDS011;45558;37.752;-97.822;2024-02-21T05:43:07;2.88;;;0.50;;
58460;SDS011;45558;37.752;-97.822;2024-02-21T05:45:33;0.88;;;0.15;;
58460;SDS011;45558;37.752;-97.822;2024-02-21T05:51:20;2.13;;;0.10;;
58460;SDS011;45558;37.752;-97.822;2024-02-21T05:53:46;0.63;;;0.10;;
58460;SDS011;45558;37.752;-97.822;2024-02-21T05:56:12;0.00;;;0.00;;
58460;SDS011;45558;37.752;-97.822;2024-02-21T05:58:38;0.73;;;0.10;;
58460;SDS011;45558;37.752;-97.822;2024-02-21T06:01:04;1.38;;;0.10;;
58460;SDS011;45558;37.752;-97.822;2024-02-21T06:03:32;1.52;;;0.17;;
58460;SDS011;45558;37.752;-97.822;2024-02-21T06:05:58;0.50;;;0.20;;
58460;SDS011;45558;37.752;-97.822;2024-02-21T06:08:25;1.92;;;0.00;;
58460;SDS011;45558;37.752;-97.822;2024-02-21T06:10:50;0.28;;;0.10;;
58460;SDS011;45558;37.752;-97.822;2024-02-21T06:13:19;2.35;;;0.13;;
58460;SDS011;45558;37.752;-97.822;2024-02-21T06:15:46;0.57;;;0.10;;
58460;SDS011;45558;37.752;-97.822;2024-02-21T06:18:12;0.40;;;0.10;;
58460;SDS011;45558;37.752;-97.822;2024-02-21T06:20:38;0.82;;;0.30;;
58460;SDS011;45558;37.752;-97.822;2024-02-21T06:23:05;0.65;;;0.22;;
58460;SDS011;45558;37.752;-97.822;2024-02-21T06:25:31;0.70;;;0.20;;
58460;SDS011;45558;37.752;-97.822;2024-02-21T06:27:57;1.02;;;0.47;;
58460;SDS011;45558;37.752;-97.822;2024-02-21T06:30:23;0.93;;;0.25;;
58460;SDS011;45558;37.752;-97.822;2024-02-21T06:32:49;0.32;;;0.20;;
58460;SDS011;45558;37.752;-97.822;2024-02-21T06:35:14;0.80;;;0.50;;
58460;SDS011;45558;37.752;-97.822;2024-02-21T06:37:40;2.70;;;0.55;;
58460;SDS011;45558;37.752;-97.822;2024-02-21T06:40:06;0.35;;;0.20;;
58460;SDS011;45558;37.752;-97.822;2024-02-21T06:42:32;2.00;;;0.47;;
58460;SDS011;45558;37.752;-97.822;2024-02-21T06:44:58;0.30;;;0.30;;
58460;SDS011;45558;37.752;-97.822;2024-02-21T06:47:24;0.43;;;0.30;;
58460;SDS011;45558;37.752;-97.822;2024-02-21T06:49:50;2.08;;;0.20;;
58460;SDS011;45558;37.752;-97.822;2024-02-21T06:52:19;0.30;;;0.25;;
58460;SDS011;45558;37.752;-97.822;2024-02-21T06:54:46;0.55;;;0.35;;
58460;SDS011;45558;37.752;-97.822;2024-02-21T06:57:14;0.90;;;0.28;;
58460;SDS011;45558;37.752;-97.822;2024-02-21T06:59:41;0.47;;;0.20;;
58460;SDS011;45558;37.752;-97.822;2024-02-21T07:02:07;0.60;;;0.20;;
58460;SDS011;45558;37.752;-97.822;2024-02-21T07:04:32;0.20;;;0.20;;
58460;SDS011;45558;37.752;-97.822;2024-02-21T07:06:58;0.43;;;0.10;;
58460;SDS011;45558;37.752;-97.822;2024-02-21T07:09:24;3.40;;;0.60;;
58460;SDS011;45558;37.752;-97.822;2024-02-21T07:11:50;0.65;;;0.20;;
58460;SDS011;45558;37.752;-97.822;2024-02-21T07:14:17;0.70;;;0.15;;
58460;SDS011;45558;37.752;-97.822;2024-02-21T07:16:43;0.13;;;0.10;;
58460;SDS011;45558;37.752;-97.822;2024-02-21T07:19:09;0.77;;;0.10;;
58460;SDS011;45558;37.752;-97.822;2024-02-21T07:21:35;0.45;;;0.10;;
58460;SDS011;45558;37.752;-97.822;2024-02-21T07:24:03;0.52;;;0.10;;
58460;SDS011;45558;37.752;-97.822;2024-02-21T07:26:30;0.22;;;0.10;;
58460;SDS011;45558;37.752;-97.822;2024-02-21T07:28:56;0.25;;;0.20;;
58460;SDS011;45558;37.752;-97.822;2024-02-21T07:31:22;0.65;;;0.10;;
58460;SDS011;45558;37.752;-97.822;2024-02-21T07:33:48;0.30;;;0.10;;
58460;SDS011;45558;37.752;-97.822;2024-02-21T07:36:14;0.38;;;0.10;;
58460;SDS011;45558;37.752;-97.822;2024-02-21T07:38:40;1.83;;;0.10;;
58460;SDS011;45558;37.752;-97.822;2024-02-21T07:41:07;2.17;;;0.10;;
58460;SDS011;45558;37.752;-97.822;2024-02-21T07:43:32;0.20;;;0.20;;
58460;SDS011;45558;37.752;-97.822;2024-02-21T07:45:58;0.77;;;0.20;;
58460;SDS011;45558;37.752;-97.822;2024-02-21T07:48:24;2.03;;;0.15;;
58460;SDS011;45558;37.752;-97.822;2024-02-21T07:50:51;1.02;;;0.43;;
58460;SDS011;45558;37.752;-97.822;2024-02-21T07:53:17;1.55;;;0.85;;
58460;SDS011;45558;37.752;-97.822;2024-02-21T07:55:43;0.73;;;0.25;;
58460;SDS011;45558;37.752;-97.822;2024-02-21T07:58:09;0.25;;;0.10;;
58460;SDS011;45558;37.752;-97.822;2024-02-21T08:00:35;1.55;;;0.40;;
58460;SDS011;45558;37.752;-97.822;2024-02-21T08:03:01;0.10;;;0.10;;
58460;SDS011;45558;37.752;-97.822;2024-02-21T08:05:27;1.20;;;0.10;;
58460;SDS011;45558;37.752;-97.822;2024-02-21T08:07:55;0.28;;;0.20;;
58460;SDS011;45558;37.752;-97.822;2024-02-21T08:10:20;0.00;;;0.00;;
58460;SDS011;45558;37.752;-97.822;2024-02-21T08:12:46;0.22;;;0.15;;
58460;SDS011;45558;37.752;-97.822;2024-02-21T08:15:12;0.80;;;0.05;;
58460;SDS011;45558;37.752;-97.822;2024-02-21T08:17:38;0.15;;;0.00;;
58460;SDS011;45558;37.752;-97.822;2024-02-21T08:20:05;0.10;;;0.00;;
58460;SDS011;45558;37.752;-97.822;2024-02-21T08:22:31;0.17;;;0.00;;
58460;SDS011;45558;37.752;-97.822;2024-02-21T08:24:57;0.15;;;0.10;;
58460;SDS011;45558;37.752;-97.822;2024-02-21T08:27:23;0.25;;;0.00;;
58460;SDS011;45558;37.752;-97.822;2024-02-21T08:29:49;0.00;;;0.00;;
58460;SDS011;45558;37.752;-97.822;2024-02-21T08:32:14;0.50;;;0.10;;
58460;SDS011;45558;37.752;-97.822;2024-02-21T08:34:40;0.00;;;0.00;;
58460;SDS011;45558;37.752;-97.822;2024-02-21T08:37:06;16.27;;;0.80;;
58460;SDS011;45558;37.752;-97.822;2024-02-21T08:39:31;0.30;;;0.10;;
58460;SDS011;45558;37.752;-97.822;2024-02-21T08:41:57;0.17;;;0.10;;
58460;SDS011;45558;37.752;-97.822;2024-02-21T08:44:23;0.47;;;0.20;;
58460;SDS011;45558;37.752;-97.822;2024-02-21T08:46:52;0.20;;;0.00;;
58460;SDS011;45558;37.752;-97.822;2024-02-21T08:49:18;0.10;;;0.05;;
58460;SDS011;45558;37.752;-97.822;2024-02-21T08:51:43;3.58;;;0.20;;
58460;SDS011;45558;37.752;-97.822;2024-02-21T08:54:09;0.70;;;0.30;;
58460;SDS011;45558;37.752;-97.822;2024-02-21T08:56:35;1.15;;;0.20;;
58460;SDS011;45558;37.752;-97.822;2024-02-21T08:59:01;0.38;;;0.10;;
58460;SDS011;45558;37.752;-97.822;2024-02-21T09:01:27;1.60;;;0.10;;
58460;SDS011;45558;37.752;-97.822;2024-02-21T09:03:54;0.20;;;0.10;;
58460;SDS011;45558;37.752;-97.822;2024-02-21T09:06:21;0.10;;;0.10;;
58460;SDS011;45558;37.752;-97.822;2024-02-21T09:08:47;0.60;;;0.20;;
58460;SDS011;45558;37.752;-97.822;2024-02-21T09:11:14;1.25;;;0.30;;
58460;SDS011;45558;37.752;-97.822;2024-02-21T09:13:40;0.68;;;0.22;;
58460;SDS011;45558;37.752;-97.822;2024-02-21T09:16:05;2.17;;;0.28;;
58460;SDS011;45558;37.752;-97.822;2024-02-21T09:18:31;1.25;;;0.20;;
58460;SDS011;45558;37.752;-97.822;2024-02-21T09:20:57;0.73;;;0.10;;
58460;SDS011;45558;37.752;-97.822;2024-02-21T09:23:26;0.08;;;0.08;;
58460;SDS011;45558;37.752;-97.822;2024-02-21T09:25:52;0.13;;;0.13;;
58460;SDS011;45558;37.752;-97.822;2024-02-21T09:28:18;1.17;;;0.47;;
58460;SDS011;45558;37.752;-97.822;2024-02-21T09:30:44;4.45;;;0.30;;
58460;SDS011;45558;37.752;-97.822;2024-02-21T09:33:10;0.57;;;0.10;;
58460;SDS011;45558;37.752;-97.822;2024-02-21T09:35:36;1.63;;;0.30;;
58460;SDS011;45558;37.752;-97.822;2024-02-21T09:38:02;0.30;;;0.10;;
58460;SDS011;45558;37.752;-97.822;2024-02-21T09:40:28;0.38;;;0.10;;
58460;SDS011;45558;37.752;-97.822;2024-02-21T09:43:02;2.40;;;0.13;;
58460;SDS011;45558;37.752;-97.822;2024-02-21T09:45:32;0.22;;;0.08;;
58460;SDS011;45558;37.752;-97.822;2024-02-21T09:50:46;1.55;;;0.30;;
58460;SDS011;45558;37.752;-97.822;2024-02-21T09:53:12;0.63;;;0.10;;
58460;SDS011;45558;37.752;-97.822;2024-02-21T09:55:41;0.10;;;0.00;;
58460;SDS011;45558;37.752;-97.822;2024-02-21T09:58:08;0.32;;;0.10;;
58460;SDS011;45558;37.752;-97.822;2024-02-21T10:00:37;0.55;;;0.10;;
58460;SDS011;45558;37.752;-97.822;2024-02-21T10:03:03;1.55;;;0.13;;
58460;SDS011;45558;37.752;-97.822;2024-02-21T10:05:36;1.45;;;0.10;;
58460;SDS011;45558;37.752;-97.822;2024-02-21T10:08:02;0.63;;;0.00;;
58460;SDS011;45558;37.752;-97.822;2024-02-21T10:10:28;0.20;;;0.10;;
58460;SDS011;45558;37.752;-97.822;2024-02-21T10:12:55;1.63;;;0.30;;
58460;SDS011;45558;37.752;-97.822;2024-02-21T10:15:23;0.60;;;0.20;;
58460;SDS011;45558;37.752;-97.822;2024-02-21T10:17:52;0.75;;;0.10;;
58460;SDS011;45558;37.752;-97.822;2024-02-21T10:20:23;0.35;;;0.10;;
58460;SDS011;45558;37.752;-97.822;2024-02-21T10:22:59;2.28;;;0.20;;
58460;SDS011;45558;37.752;-97.822;2024-02-21T10:25:38;0.90;;;0.30;;
58460;SDS011;45558;37.752;-97.822;2024-02-21T10:28:08;0.20;;;0.10;;
58460;SDS011;45558;37.752;-97.822;2024-02-21T10:30:34;1.58;;;0.13;;
58460;SDS011;45558;37.752;-97.822;2024-02-21T10:33:00;0.28;;;0.10;;
58460;SDS011;45558;37.752;-97.822;2024-02-21T10:35:29;1.17;;;0.25;;
58460;SDS011;45558;37.752;-97.822;2024-02-21T10:37:56;0.50;;;0.20;;
58460;SDS011;45558;37.752;-97.822;2024-02-21T10:40:26;1.85;;;0.20;;
58460;SDS011;45558;37.752;-97.822;2024-02-21T10:42:58;2.75;;;0.20;;
58460;SDS011;45558;37.752;-97.822;2024-02-21T10:45:32;1.48;;;0.22;;
58460;SDS011;45558;37.752;-97.822;2024-02-21T10:48:19;1.60;;;0.20;;
58460;SDS011;45558;37.752;-97.822;2024-02-21T10:50:57;1.00;;;0.20;;
58460;SDS011;45558;37.752;-97.822;2024-02-21T10:56:31;2.03;;;0.13;;
58460;SDS011;45558;37.752;-97.822;2024-02-21T10:59:02;1.65;;;0.30;;
58460;SDS011;45558;37.752;-97.822;2024-02-21T11:03:58;2.28;;;0.20;;
58460;SDS011;45558;37.752;-97.822;2024-02-21T11:06:28;3.80;;;0.50;;
58460;SDS011;45558;37.752;-97.822;2024-02-21T11:09:04;1.90;;;0.30;;
58460;SDS011;45558;37.752;-97.822;2024-02-21T11:11:33;3.95;;;0.30;;
58460;SDS011;45558;37.752;-97.822;2024-02-21T11:14:06;2.00;;;0.15;;
58460;SDS011;45558;37.752;-97.822;2024-02-21T11:16:37;1.90;;;0.20;;
58460;SDS011;45558;37.752;-97.822;2024-02-21T11:19:20;1.85;;;0.25;;
58460;SDS011;45558;37.752;-97.822;2024-02-21T11:21:47;1.45;;;0.30;;
58460;SDS011;45558;37.752;-97.822;2024-02-21T11:24:14;4.20;;;0.40;;
58460;SDS011;45558;37.752;-97.822;2024-02-21T11:27:13;1.60;;;0.22;;
58460;SDS011;45558;37.752;-97.822;2024-02-21T11:32:17;1.83;;;0.20;;
58460;SDS011;45558;37.752;-97.822;2024-02-21T11:34:53;2.70;;;0.30;;
58460;SDS011;45558;37.752;-97.822;2024-02-21T11:37:26;5.35;;;0.60;;
58460;SDS011;45558;37.752;-97.822;2024-02-21T11:39:53;3.30;;;0.50;;
58460;SDS011;45558;37.752;-97.822;2024-02-21T11:42:22;7.78;;;0.77;;
58460;SDS011;45558;37.752;-97.822;2024-02-21T11:44:50;5.45;;;0.85;;
58460;SDS011;45558;37.752;-97.822;2024-02-21T11:47:16;3.35;;;0.30;;
58460;SDS011;45558;37.752;-97.822;2024-02-21T11:49:45;6.72;;;0.70;;
58460;SDS011;45558;37.752;-97.822;2024-02-21T11:52:12;4.32;;;0.60;;
58460;SDS011;45558;37.752;-97.822;2024-02-21T11:54:40;5.65;;;0.55;;
58460;SDS011;45558;37.752;-97.822;2024-02-21T11:57:06;4.65;;;0.30;;
58460;SDS011;45558;37.752;-97.822;2024-02-21T11:59:32;6.25;;;1.05;;
58460;SDS011;45558;37.752;-97.822;2024-02-21T12:01:59;3.30;;;1.05;;
58460;SDS011;45558;37.752;-97.822;2024-02-21T12:04:25;4.10;;;0.75;;
58460;SDS011;45558;37.752;-97.822;2024-02-21T12:06:54;10.35;;;2.25;;
58460;SDS011;45558;37.752;-97.822;2024-02-21T12:09:22;4.95;;;0.73;;
58460;SDS011;45558;37.752;-97.822;2024-02-21T12:11:56;3.63;;;0.45;;
58460;SDS011;45558;37.752;-97.822;2024-02-21T12:14:27;5.97;;;0.55;;
58460;SDS011;45558;37.752;-97.822;2024-02-21T12:16:55;5.30;;;0.70;;
58460;SDS011;45558;37.752;-97.822;2024-02-21T12:19:21;4.50;;;0.82;;
58460;SDS011;45558;37.752;-97.822;2024-02-21T12:21:47;7.50;;;1.90;;
58460;SDS011;45558;37.752;-97.822;2024-02-21T12:26:42;6.93;;;0.60;;
58460;SDS011;45558;37.752;-97.822;2024-02-21T12:29:08;5.05;;;0.60;;
58460;SDS011;45558;37.752;-97.822;2024-02-21T12:31:37;4.50;;;0.40;;
58460;SDS011;45558;37.752;-97.822;2024-02-21T12:34:03;3.08;;;0.50;;
58460;SDS011;45558;37.752;-97.822;2024-02-21T12:36:30;3.15;;;0.40;;
58460;SDS011;45558;37.752;-97.822;2024-02-21T12:39:01;5.35;;;1.02;;
58460;SDS011;45558;37.752;-97.822;2024-02-21T12:41:29;5.32;;;1.00;;
58460;SDS011;45558;37.752;-97.822;2024-02-21T12:43:57;5.05;;;1.30;;
58460;SDS011;45558;37.752;-97.822;2024-02-21T12:46:23;3.22;;;0.60;;
58460;SDS011;45558;37.752;-97.822;2024-02-21T12:48:50;6.43;;;1.80;;
58460;SDS011;45558;37.752;-97.822;2024-02-21T12:51:16;4.25;;;0.68;;
58460;SDS011;45558;37.752;-97.822;2024-02-21T12:53:47;5.80;;;2.08;;
58460;SDS011;45558;37.752;-97.822;2024-02-21T12:56:15;8.55;;;0.88;;
58460;SDS011;45558;37.752;-97.822;2024-02-21T12:58:41;6.72;;;1.10;;
58460;SDS011;45558;37.752;-97.822;2024-02-21T13:01:07;5.00;;;0.68;;
58460;SDS011;45558;37.752;-97.822;2024-02-21T13:03:32;2.00;;;0.50;;
58460;SDS011;45558;37.752;-97.822;2024-02-21T13:05:58;5.65;;;0.63;;
58460;SDS011;45558;37.752;-97.822;2024-02-21T13:08:25;2.22;;;0.50;;
58460;SDS011;45558;37.752;-97.822;2024-02-21T13:10:50;2.10;;;0.40;;
58460;SDS011;45558;37.752;-97.822;2024-02-21T13:13:16;1.52;;;0.38;;
58460;SDS011;45558;37.752;-97.822;2024-02-21T13:15:42;5.20;;;0.63;;
58460;SDS011;45558;37.752;-97.822;2024-02-21T13:18:08;6.15;;;0.70;;
58460;SDS011;45558;37.752;-97.822;2024-02-21T13:20:34;6.40;;;0.90;;
58460;SDS011;45558;37.752;-97.822;2024-02-21T13:23:01;2.67;;;0.80;;
58460;SDS011;45558;37.752;-97.822;2024-02-21T13:25:27;3.40;;;0.70;;
58460;SDS011;45558;37.752;-97.822;2024-02-21T13:27:53;2.38;;;0.50;;
58460;SDS011;45558;37.752;-97.822;2024-02-21T13:30:19;12.15;;;0.82;;
58460;SDS011;45558;37.752;-97.822;2024-02-21T13:32:45;4.15;;;0.80;;
58460;SDS011;45558;37.752;-97.822;2024-02-21T13:35:14;2.55;;;0.52;;
58460;SDS011;45558;37.752;-97.822;2024-02-21T13:37:41;5.97;;;1.55;;
58460;SDS011;45558;37.752;-97.822;2024-02-21T13:40:07;3.30;;;0.40;;
58460;SDS011;45558;37.752;-97.822;2024-02-21T13:42:37;3.00;;;0.30;;
58460;SDS011;45558;37.752;-97.822;2024-02-21T13:45:03;1.80;;;0.60;;
58460;SDS011;45558;37.752;-97.822;2024-02-21T13:47:30;0.52;;;0.20;;
58460;SDS011;45558;37.752;-97.822;2024-02-21T13:49:56;4.13;;;0.32;;
58460;SDS011;45558;37.752;-97.822;2024-02-21T13:52:22;0.90;;;0.20;;
58460;SDS011;45558;37.752;-97.822;2024-02-21T13:54:51;1.98;;;0.45;;
58460;SDS011;45558;37.752;-97.822;2024-02-21T13:57:17;1.85;;;0.30;;
58460;SDS011;45558;37.752;-97.822;2024-02-21T13:59:43;5.05;;;0.40;;
58460;SDS011;45558;37.752;-97.822;2024-02-21T14:02:09;2.08;;;0.40;;
58460;SDS011;45558;37.752;-97.822;2024-02-21T14:04:35;1.63;;;0.30;;
58460;SDS011;45558;37.752;-97.822;2024-02-21T14:07:01;4.75;;;0.30;;
58460;SDS011;45558;37.752;-97.822;2024-02-21T14:09:27;5.45;;;0.52;;
58460;SDS011;45558;37.752;-97.822;2024-02-21T14:11:56;2.05;;;0.35;;
58460;SDS011;45558;37.752;-97.822;2024-02-21T14:14:22;2.05;;;0.38;;
58460;SDS011;45558;37.752;-97.822;2024-02-21T14:16:47;2.78;;;1.45;;
58460;SDS011;45558;37.752;-97.822;2024-02-21T14:19:13;3.78;;;0.52;;
58460;SDS011;45558;37.752;-97.822;2024-02-21T14:21:39;2.65;;;0.50;;
58460;SDS011;45558;37.752;-97.822;2024-02-21T14:24:05;1.25;;;0.25;;
58460;SDS011;45558;37.752;-97.822;2024-02-21T14:26:31;4.32;;;0.28;;
58460;SDS011;45558;37.752;-97.822;2024-02-21T14:28:57;1.52;;;0.35;;
58460;SDS011;45558;37.752;-97.822;2024-02-21T14:31:24;4.57;;;0.43;;
58460;SDS011;45558;37.752;-97.822;2024-02-21T14:33:50;3.13;;;0.60;;
58460;SDS011;45558;37.752;-97.822;2024-02-21T14:36:17;2.45;;;0.20;;
58460;SDS011;45558;37.752;-97.822;2024-02-21T14:42:05;2.15;;;0.40;;
58460;SDS011;45558;37.752;-97.822;2024-02-21T14:44:30;1.45;;;0.32;;
58460;SDS011;45558;37.752;-97.822;2024-02-21T14:46:56;2.25;;;0.40;;
58460;SDS011;45558;37.752;-97.822;2024-02-21T14:49:22;2.53;;;0.40;;